createdAt,value
2016-04-22T00:00:46.647Z,20.23
2016-04-22T00:01:49.603Z,19.75
2016-04-22T00:02:46.544Z,19.85
2016-04-22T00:03:52.723Z,19.75
2016-04-22T00:04:46.652Z,19.75
2016-04-22T00:05:46.420Z,19.85
2016-04-22T00:06:49.392Z,19.65
2016-04-22T00:07:46.317Z,19.75
2016-04-22T00:08:46.256Z,19.75
2016-04-22T00:09:49.244Z,19.56
2016-04-22T00:10:46.200Z,19.27
2016-04-22T00:11:46.186Z,19.65
2016-04-22T00:12:46.408Z,19.56
2016-04-22T00:13:48.911Z,19.37
2016-04-22T00:14:46.008Z,19.18
2016-04-22T00:15:45.963Z,19.37
2016-04-22T00:16:45.919Z,19.46
2016-04-22T00:17:48.874Z,19.37
2016-04-22T00:18:45.831Z,19.37
2016-04-22T00:19:45.771Z,19.46
2016-04-22T00:20:51.742Z,19.56
2016-04-22T00:21:45.698Z,19.65
2016-04-22T00:22:45.654Z,19.37
2016-04-22T00:23:45.594Z,19.08
2016-04-22T00:24:45.550Z,19.46
2016-04-22T00:25:45.709Z,19.46
2016-04-22T00:26:45.477Z,19.65
2016-04-22T00:27:45.418Z,19.46
2016-04-22T00:28:45.373Z,19.56
2016-04-22T00:29:45.376Z,19.37
2016-04-22T00:30:45.285Z,19.65
2016-04-22T00:31:45.257Z,19.57
2016-04-22T00:32:45.196Z,19.37
2016-04-22T00:33:45.152Z,19.56
2016-04-22T00:34:48.092Z,19.46
2016-04-22T00:35:45.065Z,19.46
2016-04-22T00:36:45.036Z,19.27
2016-04-22T00:37:45.492Z,19.18
2016-04-22T00:38:44.917Z,19.37
2016-04-22T00:39:44.872Z,19.65
2016-04-22T00:40:48.125Z,19.46
2016-04-22T00:41:44.800Z,19.27
2016-04-22T00:42:47.755Z,19.37
2016-04-22T00:43:47.726Z,19.27
2016-04-22T00:44:44.652Z,19.56
2016-04-22T00:45:44.685Z,19.46
2016-04-22T00:46:50.563Z,19.46
2016-04-22T00:47:44.503Z,19.56
2016-04-22T00:48:44.490Z,19.56
2016-04-22T00:49:44.445Z,19.46
2016-04-22T00:50:47.387Z,19.56
2016-04-22T00:51:44.342Z,19.27
2016-04-22T00:52:44.298Z,19.46
2016-04-22T00:53:44.457Z,19.46
2016-04-22T00:54:44.210Z,19.46
2016-04-22T00:55:47.228Z,19.56
2016-04-22T00:56:44.105Z,19.18
2016-04-22T00:57:44.092Z,19.18
2016-04-22T00:58:44.017Z,19.46
2016-04-22T00:59:43.989Z,19.65
2016-04-22T01:00:43.944Z,19.65
2016-04-22T01:01:49.885Z,19.56
2016-04-22T01:02:49.855Z,19.18
2016-04-22T01:03:46.811Z,19.18
2016-04-22T01:04:43.752Z,19.56
2016-04-22T01:05:44.036Z,19.46
2016-04-22T01:06:43.663Z,19.46
2016-04-22T01:07:44.135Z,19.65
2016-04-22T01:08:43.575Z,19.37
2016-04-22T01:09:43.827Z,19.46
2016-04-22T01:10:46.487Z,19.37
2016-04-22T01:11:46.521Z,19.46
2016-04-22T01:12:43.415Z,19.46
2016-04-22T01:13:43.557Z,19.37
2016-04-22T01:14:46.310Z,19.37
2016-04-22T01:15:43.251Z,19.37
2016-04-22T01:16:43.206Z,19.46
2016-04-22T01:17:46.381Z,19.27
2016-04-22T01:18:43.102Z,19.27
2016-04-22T01:19:46.089Z,19.75
2016-04-22T01:20:43.342Z,19.56
2016-04-22T01:21:43.204Z,19.85
2016-04-22T01:22:42.942Z,19.65
2016-04-22T01:23:42.756Z,19.95
2016-04-22T01:24:42.853Z,19.95
2016-04-22T01:25:42.809Z,19.85
2016-04-22T01:26:42.952Z,19.75
2016-04-22T01:27:45.580Z,19.95
2016-04-22T01:28:42.661Z,19.95
2016-04-22T01:29:45.631Z,19.95
2016-04-22T01:30:45.572Z,19.75
2016-04-22T01:31:45.528Z,20.04
2016-04-22T01:32:45.499Z,19.85
2016-04-22T01:33:42.455Z,19.75
2016-04-22T01:34:42.599Z,19.85
2016-04-22T01:35:42.555Z,19.75
2016-04-22T01:36:42.307Z,19.85
2016-04-22T01:37:42.263Z,19.85
2016-04-22T01:38:45.235Z,19.95
2016-04-22T01:39:42.174Z,20.14
2016-04-22T01:40:45.146Z,20.23
2016-04-22T01:41:51.118Z,19.95
2016-04-22T01:42:44.980Z,19.95
2016-04-22T01:43:45.201Z,19.95
2016-04-22T01:44:44.954Z,19.95
2016-04-22T01:45:50.893Z,19.95
2016-04-22T01:46:45.084Z,19.95
2016-04-22T01:47:41.805Z,20.14
2016-04-22T01:48:41.762Z,19.95
2016-04-22T01:49:41.920Z,20.14
2016-04-22T01:50:41.688Z,20.04
2016-04-22T01:51:44.629Z,20.04
2016-04-22T01:52:44.584Z,19.95
2016-04-22T01:53:44.556Z,19.95
2016-04-22T01:54:41.496Z,19.95
2016-04-22T01:55:44.452Z,20.04
2016-04-22T01:56:44.408Z,20.14
2016-04-22T01:57:41.364Z,20.04
2016-04-22T01:58:44.319Z,20.04
2016-04-22T01:59:44.275Z,19.95
2016-04-22T02:00:41.247Z,20.04
2016-04-22T02:01:41.172Z,20.04
2016-04-22T02:02:41.127Z,20.14
2016-04-22T02:03:41.098Z,20.14
2016-04-22T02:04:41.055Z,20.14
2016-04-22T02:05:41.025Z,20.04
2016-04-22T02:06:40.950Z,19.95
2016-04-22T02:07:40.906Z,19.85
2016-04-22T02:08:40.878Z,19.95
2016-04-22T02:09:40.818Z,19.95
2016-04-22T02:10:40.758Z,19.95
2016-04-22T02:11:43.745Z,19.95
2016-04-22T02:12:40.669Z,19.85
2016-04-22T02:13:40.625Z,19.85
2016-04-22T02:14:40.878Z,19.85
2016-04-22T02:15:40.552Z,19.95
2016-04-22T02:16:40.712Z,19.75
2016-04-22T02:17:40.449Z,19.85
2016-04-22T02:18:40.435Z,19.75
2016-04-22T02:19:43.376Z,19.75
2016-04-22T02:20:43.535Z,20.14
2016-04-22T02:21:46.272Z,20.14
2016-04-22T02:22:43.243Z,20.04
2016-04-22T02:23:43.184Z,20.14
2016-04-22T02:24:52.154Z,20.23
2016-04-22T02:25:43.095Z,20.14
2016-04-22T02:26:43.067Z,20.04
2016-04-22T02:27:43.038Z,20.23
2016-04-22T02:28:39.947Z,20.33
2016-04-22T02:29:39.934Z,20.23
2016-04-22T02:30:39.875Z,20.23
2016-04-22T02:31:40.345Z,20.33
2016-04-22T02:32:39.786Z,20.33
2016-04-22T02:33:42.757Z,20.33
2016-04-22T02:34:39.681Z,20.14
2016-04-22T02:35:39.638Z,20.33
2016-04-22T02:36:42.594Z,20.33
2016-04-22T02:37:42.564Z,20.23
2016-04-22T02:38:39.521Z,20.33
2016-04-22T02:39:39.461Z,20.23
2016-04-22T02:40:39.463Z,20.04
2016-04-22T02:41:39.388Z,20.33
2016-04-22T02:42:42.547Z,20.33
2016-04-22T02:43:39.581Z,20.14
2016-04-22T02:44:39.443Z,20.43
2016-04-22T02:45:39.399Z,20.23
2016-04-22T02:46:39.198Z,20.14
2016-04-22T02:47:39.216Z,20.04
2016-04-22T02:48:39.063Z,20.04
2016-04-22T02:49:39.003Z,20.23
2016-04-22T02:50:41.974Z,20.23
2016-04-22T02:51:41.915Z,20.33
2016-04-22T02:52:38.871Z,20.33
2016-04-22T02:53:38.842Z,20.14
2016-04-22T02:54:38.782Z,20.33
2016-04-22T02:55:39.066Z,20.23
2016-04-22T02:56:38.773Z,20.14
2016-04-22T02:57:41.666Z,20.23
2016-04-22T02:58:38.620Z,20.23
2016-04-22T02:59:38.562Z,20.04
2016-04-22T03:00:41.533Z,20.23
2016-04-22T03:01:38.458Z,20.33
2016-04-22T03:02:41.648Z,20.14
2016-04-22T03:03:44.384Z,20.23
2016-04-22T03:04:38.372Z,20.33
2016-04-22T03:05:41.296Z,20.23
2016-04-22T03:06:41.252Z,20.23
2016-04-22T03:07:38.411Z,20.23
2016-04-22T03:08:38.460Z,20.23
2016-04-22T03:09:38.416Z,20.23
2016-04-22T03:10:41.060Z,20.23
2016-04-22T03:11:38.344Z,20.23
2016-04-22T03:12:37.800Z,20.23
2016-04-22T03:13:37.943Z,20.23
2016-04-22T03:14:40.883Z,20.23
2016-04-22T03:15:40.855Z,20.23
2016-04-22T03:16:40.810Z,20.23
2016-04-22T03:17:43.751Z,20.23
2016-04-22T03:18:40.707Z,20.23
2016-04-22T03:19:40.677Z,20.23
2016-04-22T03:20:40.618Z,20.23
2016-04-22T03:21:37.574Z,20.23
2016-04-22T03:22:37.514Z,20.23
2016-04-22T03:23:37.470Z,20.14
2016-04-22T03:24:37.426Z,20.14
2016-04-22T03:25:40.398Z,20.33
2016-04-22T03:26:40.354Z,20.23
2016-04-22T03:27:37.293Z,20.13
2016-04-22T03:28:43.249Z,20.14
2016-04-22T03:29:40.236Z,20.14
2016-04-22T03:30:40.145Z,20.13
2016-04-22T03:31:37.117Z,20.23
2016-04-22T03:32:37.056Z,20.23
2016-04-22T03:33:37.028Z,20.23
2016-04-22T03:34:40.186Z,20.32
2016-04-22T03:35:36.924Z,20.33
2016-04-22T03:36:36.880Z,20.14
2016-04-22T03:37:36.835Z,20.23
2016-04-22T03:38:37.308Z,20.33
2016-04-22T03:39:36.747Z,20.33
2016-04-22T03:40:39.750Z,20.32
2016-04-22T03:41:42.659Z,20.23
2016-04-22T03:42:39.630Z,20.33
2016-04-22T03:43:36.571Z,20.23
2016-04-22T03:44:36.527Z,20.23
2016-04-22T03:45:39.482Z,20.33
2016-04-22T03:46:39.438Z,20.33
2016-04-22T03:47:36.394Z,20.33
2016-04-22T03:48:36.552Z,20.23
2016-04-22T03:49:36.305Z,20.33
2016-04-22T03:50:36.307Z,20.33
2016-04-22T03:51:39.217Z,20.33
2016-04-22T03:52:40.595Z,20.33
2016-04-22T03:53:39.129Z,20.14
2016-04-22T03:54:42.101Z,20.04
2016-04-22T03:55:36.041Z,20.23
2016-04-22T03:56:38.981Z,20.04
2016-04-22T03:57:38.937Z,20.04
2016-04-22T03:58:38.892Z,20.04
2016-04-22T03:59:35.848Z,19.75
2016-04-22T04:00:35.804Z,20.04
2016-04-22T04:01:39.462Z,19.65
2016-04-22T04:02:35.543Z,19.85
2016-04-22T04:03:39.170Z,19.95
2016-04-22T04:04:38.627Z,19.85
2016-04-22T04:05:35.583Z,19.85
2016-04-22T04:06:38.538Z,19.95
2016-04-22T04:07:38.479Z,19.85
2016-04-22T04:08:41.434Z,19.95
2016-04-22T04:09:38.391Z,19.95
2016-04-22T04:10:38.362Z,19.95
2016-04-22T04:11:35.286Z,20.04
2016-04-22T04:12:35.289Z,19.95
2016-04-22T04:13:35.197Z,19.95
2016-04-22T04:14:35.435Z,19.95
2016-04-22T04:15:35.422Z,19.85
2016-04-22T04:16:35.080Z,19.85
2016-04-22T04:17:38.037Z,19.95
2016-04-22T04:18:37.868Z,19.85
2016-04-22T04:19:35.135Z,20.14
2016-04-22T04:20:34.888Z,20.14
2016-04-22T04:21:34.844Z,20.04
2016-04-22T04:22:35.018Z,20.14
2016-04-22T04:23:37.809Z,19.95
2016-04-22T04:24:34.789Z,19.85
2016-04-22T04:25:34.783Z,20.14
2016-04-22T04:26:34.794Z,20.04
2016-04-22T04:27:34.778Z,19.85
2016-04-22T04:28:34.733Z,20.14
2016-04-22T04:29:34.954Z,20.14
2016-04-22T04:30:37.673Z,20.23
2016-04-22T04:31:37.643Z,20.14
2016-04-22T04:32:37.625Z,20.14
2016-04-22T04:33:37.633Z,19.95
2016-04-22T04:34:43.547Z,20.04
2016-04-22T04:35:40.523Z,20.04
2016-04-22T04:36:37.454Z,20.14
2016-04-22T04:37:34.646Z,19.95
2016-04-22T04:38:34.354Z,20.14
2016-04-22T04:39:34.328Z,19.95
2016-04-22T04:40:34.488Z,20.04
2016-04-22T04:41:34.228Z,19.95
2016-04-22T04:42:34.200Z,20.04
2016-04-22T04:43:37.360Z,19.75
2016-04-22T04:44:34.097Z,20.04
2016-04-22T04:45:34.053Z,20.14
2016-04-22T04:46:40.041Z,20.14
2016-04-22T04:47:36.965Z,20.14
2016-04-22T04:48:34.126Z,20.14
2016-04-22T04:49:33.879Z,19.75
2016-04-22T04:50:36.850Z,20.14
2016-04-22T04:51:33.994Z,19.95
2016-04-22T04:52:39.763Z,19.95
2016-04-22T04:53:33.703Z,19.95
2016-04-22T04:54:36.955Z,19.95
2016-04-22T04:55:33.599Z,20.04
2016-04-22T04:56:36.585Z,20.04
2016-04-22T04:57:36.541Z,19.95
2016-04-22T04:58:33.482Z,20.04
2016-04-22T04:59:36.437Z,20.04
2016-04-22T05:00:36.612Z,20.04
2016-04-22T05:01:36.349Z,20.14
2016-04-22T05:02:33.507Z,20.14
2016-04-22T05:03:33.245Z,20.14
2016-04-22T05:04:33.185Z,20.14
2016-04-22T05:05:33.157Z,20.04
2016-04-22T05:06:33.098Z,20.14
2016-04-22T05:07:33.068Z,20.03
2016-04-22T05:08:33.009Z,20.23
2016-04-22T05:09:36.184Z,20.04
2016-04-22T05:10:32.920Z,20.14
2016-04-22T05:11:32.893Z,20.04
2016-04-22T05:12:35.832Z,20.14
2016-04-22T05:13:35.882Z,20.14
2016-04-22T05:14:36.151Z,19.85
2016-04-22T05:15:32.701Z,19.85
2016-04-22T05:16:32.671Z,20.03
2016-04-22T05:17:32.815Z,20.14
2016-04-22T05:18:32.568Z,20.14
2016-04-22T05:19:32.524Z,20.03
2016-04-22T05:20:32.479Z,20.04
2016-04-22T05:21:33.342Z,20.03
2016-04-22T05:22:32.376Z,20.23
2016-04-22T05:23:35.331Z,20.23
2016-04-22T05:24:35.287Z,20.14
2016-04-22T05:25:35.242Z,20.04
2016-04-22T05:26:35.214Z,20.13
2016-04-22T05:27:35.155Z,20.13
2016-04-22T05:28:32.111Z,19.93
2016-04-22T05:29:32.066Z,20.14
2016-04-22T05:30:32.022Z,20.13
2016-04-22T05:31:31.962Z,20.13
2016-04-22T05:32:31.933Z,20.13
2016-04-22T05:33:34.874Z,20.03
2016-04-22T05:34:32.033Z,19.95
2016-04-22T05:35:31.785Z,20.14
2016-04-22T05:36:31.757Z,20.03
2016-04-22T05:37:31.728Z,19.85
2016-04-22T05:38:31.669Z,20.13
2016-04-22T05:39:34.609Z,20.13
2016-04-22T05:40:31.564Z,19.93
2016-04-22T05:41:31.536Z,20.13
2016-04-22T05:42:31.476Z,20.13
2016-04-22T05:43:31.432Z,20.03
2016-04-22T05:44:31.576Z,20.14
2016-04-22T05:45:31.343Z,20.04
2016-04-22T05:46:31.315Z,20.23
2016-04-22T05:47:31.255Z,20.14
2016-04-22T05:48:31.398Z,20.14
2016-04-22T05:49:31.370Z,20.04
2016-04-22T05:50:31.122Z,20.13
2016-04-22T05:51:31.062Z,20.14
2016-04-22T05:52:31.050Z,20.14
2016-04-22T05:53:34.192Z,19.85
2016-04-22T05:54:31.148Z,19.85
2016-04-22T05:55:30.886Z,19.95
2016-04-22T05:56:30.889Z,19.95
2016-04-22T05:57:30.781Z,19.85
2016-04-22T05:58:30.754Z,20.14
2016-04-22T05:59:33.709Z,19.85
2016-04-22T06:00:30.681Z,20.04
2016-04-22T06:01:33.605Z,19.85
2016-04-22T06:02:30.764Z,19.85
2016-04-22T06:03:33.533Z,19.85
2016-04-22T06:04:30.473Z,19.65
2016-04-22T06:05:33.632Z,19.85
2016-04-22T06:06:30.400Z,19.85
2016-04-22T06:07:30.388Z,19.85
2016-04-22T06:08:30.484Z,19.85
2016-04-22T06:09:30.235Z,19.85
2016-04-22T06:10:30.207Z,19.75
2016-04-22T06:11:30.460Z,19.85
2016-04-22T06:12:30.322Z,19.75
2016-04-22T06:13:30.465Z,19.85
2016-04-22T06:14:33.047Z,19.85
2016-04-22T06:15:29.970Z,19.85
2016-04-22T06:16:29.926Z,19.85
2016-04-22T06:17:29.929Z,19.75
2016-04-22T06:18:32.854Z,19.85
2016-04-22T06:19:29.809Z,19.85
2016-04-22T06:20:32.953Z,19.85
2016-04-22T06:21:32.721Z,19.95
2016-04-22T06:22:32.880Z,19.85
2016-04-22T06:23:29.617Z,19.65
2016-04-22T06:24:29.573Z,19.85
2016-04-22T06:25:29.561Z,19.75
2016-04-22T06:26:35.485Z,19.65
2016-04-22T06:27:29.628Z,19.65
2016-04-22T06:28:35.397Z,19.75
2016-04-22T06:29:32.352Z,19.95
2016-04-22T06:30:29.289Z,19.75
2016-04-22T06:31:32.264Z,19.65
2016-04-22T06:32:29.202Z,19.55
2016-04-22T06:33:29.158Z,19.95
2016-04-22T06:34:29.411Z,19.65
2016-04-22T06:35:29.085Z,19.56
2016-04-22T06:36:29.025Z,19.56
2016-04-22T06:37:28.981Z,19.75
2016-04-22T06:38:28.968Z,19.75
2016-04-22T06:39:28.892Z,19.75
2016-04-22T06:40:31.866Z,19.74
2016-04-22T06:41:29.007Z,19.85
2016-04-22T06:42:28.760Z,19.74
2016-04-22T06:43:28.715Z,19.95
2016-04-22T06:44:28.655Z,19.65
2016-04-22T06:45:31.833Z,19.65
2016-04-22T06:46:28.568Z,19.85
2016-04-22T06:47:32.463Z,19.85
2016-04-22T06:48:28.479Z,19.84
2016-04-22T06:49:28.435Z,19.93
2016-04-22T06:50:31.393Z,19.84
2016-04-22T06:51:37.365Z,19.85
2016-04-22T06:52:28.474Z,19.65
2016-04-22T06:53:28.242Z,19.65
2016-04-22T06:54:28.215Z,19.74
2016-04-22T06:55:28.169Z,19.74
2016-04-22T06:56:28.125Z,19.85
2016-04-22T06:57:28.065Z,19.74
2016-04-22T06:58:28.022Z,19.84
2016-04-22T06:59:27.978Z,19.74
2016-04-22T07:00:27.949Z,19.84
2016-04-22T07:01:27.889Z,20.13
2016-04-22T07:02:27.844Z,19.84
2016-04-22T07:03:28.191Z,19.84
2016-04-22T07:04:33.759Z,19.84
2016-04-22T07:05:30.712Z,20.03
2016-04-22T07:06:30.668Z,19.84
2016-04-22T07:07:27.624Z,19.74
2016-04-22T07:08:27.580Z,19.84
2016-04-22T07:09:30.551Z,19.84
2016-04-22T07:10:29.288Z,19.84
2016-04-22T07:11:27.447Z,19.84
2016-04-22T07:12:27.388Z,19.75
2016-04-22T07:13:27.734Z,19.65
2016-04-22T07:14:27.330Z,19.84
2016-04-22T07:15:27.661Z,19.74
2016-04-22T07:16:30.226Z,19.65
2016-04-22T07:17:30.166Z,19.84
2016-04-22T07:18:27.185Z,19.74
2016-04-22T07:19:30.281Z,19.93
2016-04-22T07:20:30.049Z,19.84
2016-04-22T07:21:27.052Z,19.65
2016-04-22T07:22:26.976Z,19.74
2016-04-22T07:23:26.901Z,19.65
2016-04-22T07:24:26.857Z,19.65
2016-04-22T07:25:27.015Z,19.36
2016-04-22T07:26:26.987Z,19.36
2016-04-22T07:27:26.912Z,19.45
2016-04-22T07:28:26.680Z,19.37
2016-04-22T07:29:26.870Z,19.26
2016-04-22T07:30:26.576Z,19.46
2016-04-22T07:31:26.532Z,19.45
2016-04-22T07:32:29.520Z,19.26
2016-04-22T07:33:29.459Z,19.46
2016-04-22T07:34:26.399Z,19.46
2016-04-22T07:35:26.418Z,19.46
2016-04-22T07:36:26.311Z,19.45
2016-04-22T07:37:26.267Z,19.65
2016-04-22T07:38:26.223Z,19.27
2016-04-22T07:39:26.163Z,19.26
2016-04-22T07:40:26.869Z,19.56
2016-04-22T07:41:38.140Z,19.45
2016-04-22T07:42:26.046Z,19.36
2016-04-22T07:43:32.018Z,19.37
2016-04-22T07:44:27.286Z,19.46
2016-04-22T07:45:28.898Z,19.46
2016-04-22T07:46:26.041Z,19.45
2016-04-22T07:47:25.810Z,19.56
2016-04-22T07:48:25.765Z,19.65
2016-04-22T07:49:28.924Z,19.46
2016-04-22T07:50:25.662Z,19.45
2016-04-22T07:51:25.632Z,19.46
2016-04-22T07:52:25.604Z,19.45
2016-04-22T07:53:25.529Z,19.56
2016-04-22T07:54:28.578Z,19.45
2016-04-22T07:55:25.440Z,19.07
2016-04-22T07:56:25.412Z,19.07
2016-04-22T07:57:28.368Z,19.56
2016-04-22T07:58:28.559Z,19.46
2016-04-22T07:59:25.280Z,19.45
2016-04-22T08:00:25.220Z,19.65
2016-04-22T08:01:25.176Z,19.65
2016-04-22T08:02:25.131Z,19.46
2016-04-22T08:03:28.086Z,19.55
2016-04-22T08:04:24.934Z,19.55
2016-04-22T08:05:25.203Z,19.46
2016-04-22T08:06:24.954Z,19.46
2016-04-22T08:07:24.926Z,19.46
2016-04-22T08:08:24.850Z,19.26
2016-04-22T08:09:24.869Z,19.18
2016-04-22T08:10:24.778Z,19.26
2016-04-22T08:11:24.796Z,19.27
2016-04-22T08:12:27.674Z,19.17
2016-04-22T08:13:24.692Z,19.18
2016-04-22T08:14:24.522Z,19.18
2016-04-22T08:15:24.541Z,19.07
2016-04-22T08:16:24.560Z,19.18
2016-04-22T08:17:24.437Z,19.36
2016-04-22T08:18:25.049Z,19.17
2016-04-22T08:19:24.349Z,19.18
2016-04-22T08:20:24.633Z,19.18
2016-04-22T08:21:27.276Z,19.27
2016-04-22T08:22:24.451Z,19.18
2016-04-22T08:23:24.188Z,19.17
2016-04-22T08:24:24.346Z,19.27
2016-04-22T08:25:24.646Z,19.36
2016-04-22T08:26:24.055Z,19.37
2016-04-22T08:27:26.995Z,19.65
2016-04-22T08:28:27.045Z,19.18
2016-04-22T08:29:32.985Z,19.07
2016-04-22T08:30:25.237Z,19.17
2016-04-22T08:31:23.834Z,19.27
2016-04-22T08:32:26.775Z,19.26
2016-04-22T08:33:23.714Z,19.26
2016-04-22T08:34:23.701Z,19.27
2016-04-22T08:35:23.658Z,19.17
2016-04-22T08:36:26.456Z,19.17
2016-04-22T08:37:23.570Z,19.17
2016-04-22T08:38:26.744Z,19.17
2016-04-22T08:39:23.839Z,19.08
2016-04-22T08:40:23.702Z,19.17
2016-04-22T08:41:23.361Z,19.17
2016-04-22T08:42:23.348Z,19.45
2016-04-22T08:43:26.805Z,19.45
2016-04-22T08:44:23.244Z,19.26
2016-04-22T08:45:26.481Z,19.36
2016-04-22T08:46:23.156Z,19.07
2016-04-22T08:47:26.111Z,19.45
2016-04-22T08:48:23.052Z,19.08
2016-04-22T08:49:23.055Z,19.65
2016-04-22T08:50:22.963Z,19.46
2016-04-22T08:51:22.935Z,19.45
2016-04-22T08:52:23.171Z,19.55
2016-04-22T08:53:22.832Z,19.55
2016-04-22T08:54:22.787Z,19.45
2016-04-22T08:55:22.727Z,19.45
2016-04-22T08:56:25.699Z,19.55
2016-04-22T08:57:22.685Z,19.45
2016-04-22T08:58:22.609Z,19.45
2016-04-22T08:59:22.550Z,19.46
2016-04-22T09:00:22.538Z,19.56
2016-04-22T09:01:22.462Z,19.45
2016-04-22T09:02:22.418Z,19.46
2016-04-22T09:03:25.373Z,19.46
2016-04-22T09:04:22.329Z,19.46
2016-04-22T09:05:22.520Z,19.65
2016-04-22T09:06:22.272Z,19.18
2016-04-22T09:07:22.165Z,19.65
2016-04-22T09:08:22.293Z,19.18
2016-04-22T09:09:22.093Z,19.27
2016-04-22T09:10:25.252Z,19.27
2016-04-22T09:11:25.208Z,19.27
2016-04-22T09:12:21.975Z,19.18
2016-04-22T09:13:21.931Z,19.27
2016-04-22T09:14:30.933Z,19.18
2016-04-22T09:15:24.843Z,19.56
2016-04-22T09:16:21.784Z,19.27
2016-04-22T09:17:24.927Z,19.18
2016-04-22T09:18:25.414Z,19.18
2016-04-22T09:19:24.651Z,19.18
2016-04-22T09:20:21.685Z,19.18
2016-04-22T09:21:21.625Z,19.37
2016-04-22T09:22:24.534Z,19.18
2016-04-22T09:23:21.497Z,19.18
2016-04-22T09:24:24.609Z,19.37
2016-04-22T09:25:21.689Z,19.27
2016-04-22T09:26:21.411Z,19.27
2016-04-22T09:27:24.336Z,19.18
2016-04-22T09:28:27.431Z,19.27
2016-04-22T09:29:24.279Z,19.27
2016-04-22T09:30:21.562Z,19.18
2016-04-22T09:31:21.111Z,19.18
2016-04-22T09:32:21.068Z,19.27
2016-04-22T09:33:20.992Z,19.27
2016-04-22T09:34:20.947Z,19.27
2016-04-22T09:35:21.623Z,19.27
2016-04-22T09:36:20.876Z,19.18
2016-04-22T09:37:21.206Z,19.37
2016-04-22T09:38:21.007Z,19.18
2016-04-22T09:39:20.728Z,19.27
2016-04-22T09:40:21.387Z,19.18
2016-04-22T09:41:20.655Z,19.37
2016-04-22T09:42:20.814Z,19.18
2016-04-22T09:43:23.567Z,19.27
2016-04-22T09:44:20.507Z,19.27
2016-04-22T09:45:22.244Z,19.08
2016-04-22T09:46:20.450Z,19.27
2016-04-22T09:47:20.406Z,19.27
2016-04-22T09:48:20.331Z,19.08
2016-04-22T09:49:23.286Z,19.27
2016-04-22T09:50:23.602Z,19.18
2016-04-22T09:51:20.776Z,19.27
2016-04-22T09:52:20.154Z,19.27
2016-04-22T09:53:20.093Z,19.08
2016-04-22T09:54:23.206Z,19.27
2016-04-22T09:55:20.037Z,19.27
2016-04-22T09:56:22.962Z,19.18
2016-04-22T09:57:20.152Z,19.08
2016-04-22T09:58:20.029Z,19.27
2016-04-22T09:59:19.845Z,19.27
2016-04-22T10:00:19.847Z,19.18
2016-04-22T10:01:20.318Z,19.18
2016-04-22T10:02:22.931Z,19.18
2016-04-22T10:03:19.745Z,19.18
2016-04-22T10:04:22.859Z,19.18
2016-04-22T10:05:20.141Z,19.27
2016-04-22T10:06:19.598Z,19.27
2016-04-22T10:07:22.459Z,19.08
2016-04-22T10:13:39.243Z,19.18
2016-04-22T10:14:39.199Z,19.27
2016-04-22T10:15:39.171Z,19.18
2016-04-22T10:16:42.158Z,19.08
2016-04-22T10:17:39.098Z,19.27
2016-04-22T10:18:39.023Z,19.18
2016-04-22T10:19:41.979Z,19.18
2016-04-22T10:20:38.935Z,19.08
2016-04-22T10:21:41.859Z,19.18
2016-04-22T10:22:38.846Z,19.08
2016-04-22T10:23:39.051Z,19.18
2016-04-22T10:24:38.757Z,19.08
2016-04-22T10:25:38.729Z,19.08
2016-04-22T10:26:38.669Z,19.18
2016-04-22T10:27:38.843Z,19.18
2016-04-22T10:28:38.565Z,19.18
2016-04-22T10:29:38.818Z,19.27
2016-04-22T10:30:38.461Z,19.37
2016-04-22T10:31:38.495Z,19.08
2016-04-22T10:32:41.389Z,19.37
2016-04-22T10:33:38.345Z,19.37
2016-04-22T10:34:41.910Z,19.18
2016-04-22T10:35:38.272Z,19.46
2016-04-22T10:36:38.211Z,19.46
2016-04-22T10:37:38.167Z,19.56
2016-04-22T10:38:41.139Z,19.37
2016-04-22T10:39:41.064Z,19.37
2016-04-22T10:40:38.035Z,19.56
2016-04-22T10:41:47.178Z,19.46
2016-04-22T10:42:37.947Z,19.46
2016-04-22T10:43:37.934Z,19.46
2016-04-22T10:44:40.905Z,19.56
2016-04-22T10:45:37.986Z,19.65
2016-04-22T10:46:37.738Z,19.56
2016-04-22T10:47:37.991Z,19.46
2016-04-22T10:48:40.666Z,19.56
2016-04-22T10:49:37.606Z,19.46
2016-04-22T10:50:43.577Z,19.46
2016-04-22T10:51:40.720Z,19.08
2016-04-22T10:52:37.692Z,19.46
2016-04-22T10:53:37.492Z,19.37
2016-04-22T10:54:40.416Z,19.27
2016-04-22T10:55:40.356Z,19.18
2016-04-22T10:56:37.312Z,19.37
2016-04-22T10:57:40.268Z,19.56
2016-04-22T10:58:40.286Z,19.37
2016-04-22T10:59:37.179Z,19.46
2016-04-22T11:00:45.417Z,19.46
2016-04-22T11:01:40.076Z,19.18
2016-04-22T11:02:37.234Z,19.18
2016-04-22T11:03:37.019Z,19.37
2016-04-22T11:04:36.927Z,19.18
2016-04-22T11:05:39.931Z,19.18
2016-04-22T11:06:36.856Z,19.37
2016-04-22T11:07:36.826Z,19.46
2016-04-22T11:08:36.782Z,19.65
2016-04-22T11:09:36.753Z,19.18
2016-04-22T11:10:36.741Z,19.18
2016-04-22T11:11:36.618Z,19.65
2016-04-22T11:12:36.621Z,19.65
2016-04-22T11:13:36.546Z,19.56
2016-04-22T11:14:36.705Z,19.37
2016-04-22T11:15:36.457Z,19.46
2016-04-22T11:16:36.475Z,19.46
2016-04-22T11:17:36.384Z,19.56
2016-04-22T11:18:36.387Z,19.65
2016-04-22T11:19:39.265Z,19.46
2016-04-22T11:20:39.236Z,19.56
2016-04-22T11:21:36.013Z,19.46
2016-04-22T11:22:37.076Z,19.46
2016-04-22T11:23:39.298Z,19.56
2016-04-22T11:24:36.254Z,19.46
2016-04-22T11:25:35.991Z,19.37
2016-04-22T11:26:36.197Z,19.56
2016-04-22T11:27:38.887Z,19.65
2016-04-22T11:28:38.859Z,19.46
2016-04-22T11:29:36.002Z,19.46
2016-04-22T11:30:35.739Z,19.65
2016-04-22T11:31:35.726Z,19.65
2016-04-22T11:32:35.698Z,19.37
2016-04-22T11:33:38.684Z,19.46
2016-04-22T11:34:35.577Z,19.46
2016-04-22T11:35:35.550Z,19.56
2016-04-22T11:36:35.911Z,19.65
2016-04-22T11:37:35.538Z,19.56
2016-04-22T11:38:35.401Z,19.56
2016-04-22T11:39:38.404Z,19.46
2016-04-22T11:40:35.313Z,19.56
2016-04-22T11:41:38.268Z,19.56
2016-04-22T11:42:35.224Z,19.46
2016-04-22T11:43:35.165Z,19.65
2016-04-22T11:44:35.136Z,19.37
2016-04-22T11:45:35.279Z,19.46
2016-04-22T11:46:35.031Z,19.46
2016-04-22T11:47:35.440Z,19.46
2016-04-22T11:48:34.974Z,19.27
2016-04-22T11:49:35.056Z,19.56
2016-04-22T11:50:34.870Z,19.37
2016-04-22T11:51:34.826Z,19.46
2016-04-22T11:52:34.767Z,19.46
2016-04-22T11:53:34.738Z,19.27
2016-04-22T11:54:34.772Z,19.18
2016-04-22T11:55:34.634Z,19.18
2016-04-22T11:56:34.683Z,19.37
2016-04-22T11:57:34.546Z,19.18
2016-04-22T11:58:34.533Z,19.37
2016-04-22T11:59:34.645Z,19.46
2016-04-22T12:00:34.414Z,19.56
2016-04-22T12:01:34.353Z,19.56
2016-04-22T12:02:34.591Z,19.18
2016-04-22T12:03:34.278Z,19.18
2016-04-22T12:04:34.203Z,19.65
2016-04-22T12:05:34.189Z,19.56
2016-04-22T12:06:40.148Z,19.46
2016-04-22T12:07:34.070Z,19.46
2016-04-22T12:08:34.041Z,19.56
2016-04-22T12:09:34.013Z,19.47
2016-04-22T12:10:34.078Z,19.47
2016-04-22T12:11:33.940Z,19.37
2016-04-22T12:12:33.849Z,19.56
2016-04-22T12:13:33.835Z,19.65
2016-04-22T12:14:42.810Z,19.65
2016-04-22T12:15:33.810Z,19.65
2016-04-22T12:16:33.954Z,19.46
2016-04-22T12:17:36.678Z,19.37
2016-04-22T12:18:33.585Z,19.47
2016-04-22T12:19:36.309Z,19.46
2016-04-22T12:20:33.497Z,19.46
2016-04-22T12:21:33.594Z,19.37
2016-04-22T12:22:33.815Z,19.37
2016-04-22T12:23:33.350Z,19.37
2016-04-22T12:24:33.320Z,19.37
2016-04-22T12:25:33.261Z,19.37
2016-04-22T12:26:33.216Z,19.37
2016-04-22T12:27:33.188Z,19.37
2016-04-22T12:28:33.128Z,19.46
2016-04-22T12:29:33.100Z,19.46
2016-04-22T12:30:33.056Z,19.37
2016-04-22T12:31:32.996Z,19.37
2016-04-22T12:32:32.983Z,19.47
2016-04-22T12:33:32.891Z,19.37
2016-04-22T12:34:33.082Z,19.37
2016-04-22T12:35:33.007Z,19.37
2016-04-22T12:36:35.841Z,19.46
2016-04-22T12:37:32.747Z,19.38
2016-04-22T12:38:35.705Z,19.46
2016-04-22T12:39:32.846Z,19.18
2016-04-22T12:40:32.802Z,19.46
2016-04-22T12:41:32.554Z,19.38
2016-04-22T12:42:32.494Z,19.46
2016-04-22T12:43:32.465Z,19.27
2016-04-22T12:44:35.421Z,19.37
2016-04-22T12:45:32.409Z,19.37
2016-04-22T12:46:32.333Z,19.46
2016-04-22T12:47:32.492Z,19.27
2016-04-22T12:48:32.244Z,19.18
2016-04-22T12:49:32.247Z,19.18
2016-04-22T12:50:35.187Z,19.56
2016-04-22T12:51:32.097Z,19.37
2016-04-22T12:52:35.067Z,19.56
2016-04-22T12:53:35.009Z,19.37
2016-04-22T12:54:35.183Z,19.57
2016-04-22T12:55:31.982Z,19.56
2016-04-22T12:56:31.875Z,19.67
2016-04-22T12:57:31.863Z,19.27